Last 30 Days

AM-Roundhouse Btm 6950'

Daily Data | America/Los_Angeles
as of 10/6/22 8:21 PM PDT
Date Daily Max Temp (°F) Time of Max Temp Daily Min Temp (°F) Time of Min Temp Wind Spd (mph) Daily Max Wind (mph) Max Wind Dir (°) Time of Max Wind Daily Rain (In) Seasonal Rainfall (In) SnowDepth (in) Max RH (%) Min RH (%) Wet Bulb (°F) WetB Hrs <28F (hrs) Min Press (inHg) Time of Min Press MinBV Day (V)
10/5/22 70.9 1518 48.7 0636 2.2 8.7 NW | 314 1718 0.00 0.00 0.5 55 25 45.8 0.0 30.22 1440 13.1
10/4/22 70.4 1325 47.4 0646 2.3 13.3 SE | 134 1458 0.00 0.00 0.3 51 21 44.6 0.0 30.20 1455 13.1
10/3/22 68.9 1616 46.8 0730 2.0 9.2 SE | 136 1112 0.00 0.00 0.3 69 18 44.7 0.0 30.19 0255 13.1
10/2/22 65.0 1538 46.3 0623 2.3 15.4 N | 354 1453 0.00 0.00 0.0 79 31 45.1 0.0 30.09 0140 13.1
10/1/22 66.7 1341 44.3 0657 2.2 14.0 SSE | 162 1455 0.00 0.00 0.0 75 33 45.5 0.0 30.05 1525 13.0
9/30/22 69.7 1541 45.0 0753 1.7 9.1 SE | 144 1320 0.00 45.17 0.0 76 25 44.5 0.0 30.07 1715 13.1
9/29/22 66.0 1303 49.8 2300 4.7 22.4 SE | 137 0314 0.00 45.17 0.3 62 31 45.9 0.0 30.16 1815 13.1
9/28/22 67.5 1338 55.4 2336 4.6 28.8 SE | 144 1110 0.01 45.17 0.6 43 27 45.8 0.0 30.17 1635 13.1
9/27/22 70.8 1203 53.9 2224 3.1 18.6 SSE | 166 1842 0.00 45.16 1.0 52 17 49.2 0.0 30.19 0400 13.1
9/26/22 74.3 1254 54.8 0359 2.4 18.1 SSE | 158 1531 0.00 45.16 0.3 67 30 51.2 0.0 30.20 1925 13.1
9/25/22 73.0 1525 49.7 0618 2.0 13.6 S | 174 1616 0.00 45.16 0.2 63 28 48.2 0.0 30.25 1610 13.1
9/24/22 71.9 1518 45.8 0657 1.9 10.4 NNW | 341 1305 0.00 45.16 0.3 73 28 46.5 0.0 30.24 0110 13.1
9/23/22 68.5 1533 43.4 0227 1.7 8.1 NNW | 334 1238 0.00 45.16 0.2 89 32 46.4 0.0 30.19 0340 13.1
9/22/22 60.8 1541 37.4 0716 1.4 8.9 SE | 146 1521 0.00 45.16 0.4 98 38 42.6 0.0 30.12 0145 13.1
9/21/22 48.5 1158 38.6 2342 2.1 13.8 ESE | 121 1144 0.00 45.16 0.9 99 66 41.1 0.0 30.01 0500 13.0
9/20/22 46.9 1421 41.0 0601 2.2 16.4 SSE | 161 1447 0.00 45.16 0.4 98 80 42.4 0.0 29.99 0035 13.1
9/19/22 50.7 1325 39.8 0718 2.5 17.7 S | 173 0058 0.00 45.16 0.4 99 71 42.5 0.0 29.89 0300 13.1
9/18/22 54.8 1319 42.0 0449 4.4 19.8 SSE | 157 1028 0.00 45.16 0.4 85 32 40.6 0.0 29.80 0535 13.2
9/17/22 60.1 1207 45.5 0022 3.9 21.2 SE | 140 1655 0.00 45.16 0.8 75 33 42.0 0.0 29.85 2355 13.1
9/16/22 65.1 1222 42.6 0448 2.4 14.2 SSE | 150 1713 0.00 45.16 0.2 90 18 43.2 0.0 30.05 2255 13.1
9/15/22 61.9 1215 44.0 0659 2.8 18.4 SSE | 149 1444 0.00 45.16 0.2 71 26 42.7 0.0 30.08 0450 13.1
9/14/22 62.0 1324 47.4 2359 3.7 17.7 SSE | 152 1645 0.00 45.16 0.3 73 38 45.0 0.0 30.02 0310 13.1
9/13/22 65.6 1259 47.4 2228 3.4 16.9 SE | 146 1420 0.00 45.16 0.4 80 35 48.2 0.0 30.01 1750 13.1
9/12/22 65.8 0948 54.0 2101 1.9 16.6 SSE | 158 1501 0.00 45.16 0.1 88 49 52.8 0.0 30.11 2350 13.1
9/11/22 75.4 1120 58.0 0257 2.8 18.0 ESE | 116 1325 0.00 45.16 0.0 65 31 50.9 0.0 30.21 0210 13.0
9/10/22 75.0 1135 58.4 0731 2.1 17.0 S | 170 1645 0.00 45.16 0.0 55 28 51.2 0.0 30.06 0005 13.1
9/9/22 78.7 1456 60.8 0654 1.8 7.8 SSW | 199 0921 0.00 45.16 0.0 47 23 50.8 0.0 30.01 1630 13.0
9/8/22 82.3 1304 62.1 0715 2.3 13.6 ENE | 61 1448 0.00 45.16 0.1 45 18 52.8 0.0 30.11 2330 13.0
9/7/22 86.0 1146 63.9 0627 2.5 15.1 SE | 128 1517 0.01 45.16 0.1 38 19 53.2 0.0 30.30 1855 13.1
9/6/22 87.7 1412 63.5 0719 2.7 17.8 NW | 304 2038 0.00 45.15 0.2 44 15 54.0 0.0 30.24 0355 13.0
Max 87.7 - 63.9 - 4.7 28.8 - - 0.01 45.17 1.0 99 80 54.0 0.0 30.30 - 13.2
Avg - - - - 2.6 - - - - - - - - 46.6 - - - -
Min 46.9 - 37.4 - 1.4 7.8 - - 0.00 0.00 0.0 38 15 40.6 0.0 29.80 - 13.0